Time;durP1;ratioP1;P1;durP2;ratioP2;P2;SDS_P1;SDS_P2;PMS_P1;PMS_P2;Temp;Humidity;BMP_temperature;BMP_pressure;BME280_temperature;BME280_humidity;BME280_pressure;Samples;Min_cycle;Max_cycle;Signal;HPM_P1;HPM_P2
2023/09/26 00:02:05;;;;;;;153.18;8.75;;;10.00;99.90;;;;;;4924556;29;20023;-59
2023/09/26 00:04:31;;;;;;;14.30;4.50;;;9.90;99.90;;;;;;4926662;29;20036;-59
2023/09/26 00:07:00;;;;;;;4.25;3.95;;;9.70;99.90;;;;;;4925357;29;20036;-59
2023/09/26 00:09:26;;;;;;;3.30;3.10;;;9.70;99.90;;;;;;4926498;29;20049;-59
2023/09/26 00:11:52;;;;;;;7.40;3.65;;;9.60;99.90;;;;;;4927333;28;20067;-60
2023/09/26 00:14:18;;;;;;;4.55;3.92;;;9.50;99.90;;;;;;4926134;29;20445;-59
2023/09/26 00:16:44;;;;;;;4.18;3.88;;;9.60;99.90;;;;;;4924530;28;20054;-59
2023/09/26 00:19:10;;;;;;;5.13;4.55;;;9.60;99.90;;;;;;4919131;29;20067;-59
2023/09/26 00:21:35;;;;;;;23.42;5.50;;;9.60;99.90;;;;;;4928303;29;20027;-59
2023/09/26 00:24:01;;;;;;;4.40;4.10;;;9.60;99.90;;;;;;4923551;29;20685;-59
2023/09/26 00:26:26;;;;;;;4.45;4.07;;;9.60;99.90;;;;;;4925724;29;20488;-60
2023/09/26 00:28:52;;;;;;;4.68;4.30;;;9.60;99.90;;;;;;4924870;29;20028;-60
2023/09/26 00:31:18;;;;;;;4.82;4.43;;;9.60;99.90;;;;;;4927406;29;20032;-59
2023/09/26 00:33:44;;;;;;;5.10;4.70;;;9.60;99.90;;;;;;4929226;29;20518;-59
2023/09/26 00:36:12;;;;;;;4.70;4.30;;;9.60;99.90;;;;;;4928239;29;20046;-59
2023/09/26 00:38:38;;;;;;;4.88;4.47;;;9.70;99.90;;;;;;4921661;29;20400;-60
2023/09/26 00:41:06;;;;;;;4.63;4.30;;;9.70;99.90;;;;;;4928274;29;20024;-59
2023/09/26 00:43:31;;;;;;;5.60;5.00;;;9.70;99.90;;;;;;4928529;29;20043;-59
2023/09/26 00:45:59;;;;;;;4.47;4.18;;;9.80;99.90;;;;;;4927758;29;20026;-59
2023/09/26 00:48:25;;;;;;;5.10;4.70;;;9.80;99.90;;;;;;4923389;29;20047;-59
2023/09/26 00:50:53;;;;;;;5.13;4.72;;;9.80;99.90;;;;;;4928080;29;20107;-58
2023/09/26 00:53:21;;;;;;;5.15;4.78;;;9.80;99.90;;;;;;4907321;29;20035;-59
2023/09/26 00:55:49;;;;;;;5.93;5.43;;;9.80;99.90;;;;;;4924850;29;20389;-59
2023/09/26 00:58:17;;;;;;;5.97;5.40;;;9.80;99.90;;;;;;4926933;29;20534;-59
2023/09/26 01:00:45;;;;;;;4.97;4.57;;;9.70;99.90;;;;;;4925468;28;20040;-59
2023/09/26 01:03:11;;;;;;;5.00;4.60;;;9.70;99.90;;;;;;4928148;29;20951;-59
2023/09/26 01:05:37;;;;;;;7.35;3.67;;;9.70;99.90;;;;;;4926921;29;20028;-59
2023/09/26 01:08:04;;;;;;;65.45;5.32;;;9.60;99.90;;;;;;4931886;29;20028;-59
2023/09/26 01:10:30;;;;;;;24.63;4.55;;;9.50;99.90;;;;;;4932787;28;20032;-59
2023/09/26 01:12:56;;;;;;;54.75;4.45;;;9.40;99.90;;;;;;4932101;28;20043;-59
2023/09/26 01:15:30;;;;;;;43.80;4.20;;;9.20;99.90;;;;;;4932759;29;20512;-60
2023/09/26 01:17:56;;;;;;;6.40;2.72;;;9.10;99.90;;;;;;4929708;29;20031;-59
2023/09/26 01:20:22;;;;;;;2.63;2.42;;;9.00;99.90;;;;;;4929662;29;20492;-59
2023/09/26 01:22:49;;;;;;;2.80;2.30;;;8.90;99.90;;;;;;4930503;29;20030;-58
2023/09/26 01:25:16;;;;;;;2.20;2.10;;;8.80;99.90;;;;;;4930083;29;20036;-58
2023/09/26 01:27:41;;;;;;;3.35;2.20;;;8.70;99.90;;;;;;4928207;29;20036;-59
2023/09/26 01:30:08;;;;;;;2.55;2.35;;;8.70;99.90;;;;;;4927998;29;20035;-58
2023/09/26 01:32:34;;;;;;;2.47;2.25;;;8.60;99.90;;;;;;4927487;29;20110;-60
2023/09/26 01:34:59;;;;;;;269.70;10.43;;;8.60;99.90;;;;;;4927244;29;20055;-59
2023/09/26 01:37:25;;;;;;;4.47;4.07;;;8.60;99.90;;;;;;4927901;29;20053;-59
2023/09/26 01:39:51;;;;;;;4.30;4.00;;;8.70;99.90;;;;;;4928401;29;20238;-59
2023/09/26 01:42:16;;;;;;;4.60;4.22;;;8.70;99.90;;;;;;4929664;29;20039;-58
2023/09/26 01:44:42;;;;;;;4.32;4.03;;;8.80;99.90;;;;;;4916653;29;20028;-60
2023/09/26 01:47:18;;;;;;;4.68;4.20;;;8.90;99.90;;;;;;4929857;29;20031;-59
2023/09/26 01:49:43;;;;;;;4.43;4.10;;;8.90;99.90;;;;;;4910109;29;20028;-59
2023/09/26 01:52:09;;;;;;;3.85;3.55;;;9.00;99.90;;;;;;4926895;29;20028;-59
2023/09/26 01:54:35;;;;;;;3.83;3.53;;;9.00;99.90;;;;;;4926114;29;20032;-59
2023/09/26 01:57:00;;;;;;;6.13;3.55;;;9.10;99.90;;;;;;4926610;29;20059;-59
2023/09/26 01:59:26;;;;;;;3.67;3.47;;;9.10;99.90;;;;;;4927256;28;20056;-59
2023/09/26 02:01:52;;;;;;;3.47;3.17;;;9.00;99.90;;;;;;4927994;29;20079;-59
2023/09/26 02:04:17;;;;;;;3.78;3.47;;;9.10;99.90;;;;;;4927711;29;20036;-59
2023/09/26 02:06:43;;;;;;;2.83;2.63;;;9.00;99.90;;;;;;4926453;29;20126;-61
2023/09/26 02:09:09;;;;;;;3.50;3.22;;;9.00;99.90;;;;;;4927701;29;20048;-58
2023/09/26 02:11:34;;;;;;;3.70;3.50;;;9.00;99.90;;;;;;4923362;29;20024;-59
2023/09/26 02:14:00;;;;;;;3.40;3.10;;;9.00;99.90;;;;;;4931212;29;20038;-59
2023/09/26 02:16:25;;;;;;;3.45;3.15;;;9.00;99.90;;;;;;4927769;29;20036;-59
2023/09/26 02:18:51;;;;;;;46.28;3.88;;;9.00;99.90;;;;;;4928766;29;20467;-58
2023/09/26 02:21:17;;;;;;;44.35;3.45;;;8.90;99.90;;;;;;4928905;29;20028;-59
2023/09/26 02:23:42;;;;;;;8.75;2.22;;;8.80;99.90;;;;;;4926967;29;20052;-59
2023/09/26 02:26:08;;;;;;;22.38;2.75;;;8.70;99.90;;;;;;4927449;29;20042;-59
2023/09/26 02:28:34;;;;;;;2.30;2.10;;;8.70;99.90;;;;;;4926969;29;20040;-59
2023/09/26 02:30:59;;;;;;;14.43;2.70;;;8.60;99.90;;;;;;4925263;29;20052;-58
2023/09/26 02:33:25;;;;;;;16.65;3.03;;;8.50;99.90;;;;;;4927925;29;20459;-58
2023/09/26 02:35:51;;;;;;;10.02;2.78;;;8.40;99.90;;;;;;4927392;29;20095;-59
2023/09/26 02:38:16;;;;;;;33.75;3.50;;;8.40;99.90;;;;;;4926589;29;20031;-59
2023/09/26 02:40:42;;;;;;;205.20;8.15;;;8.40;99.90;;;;;;4926661;29;20047;-59
2023/09/26 02:43:07;;;;;;;264.02;10.40;;;8.30;99.90;;;;;;4923067;28;20126;-59
2023/09/26 02:45:33;;;;;;;251.45;11.00;;;8.30;99.90;;;;;;4928191;29;20036;-59
2023/09/26 02:47:59;;;;;;;126.65;6.22;;;8.30;99.90;;;;;;4931817;28;20135;-59
2023/09/26 02:50:25;;;;;;;116.25;4.78;;;8.20;99.90;;;;;;4926109;29;20039;-60
2023/09/26 02:52:52;;;;;;;168.93;8.25;;;8.20;99.90;;;;;;4926191;29;20028;-60
2023/09/26 02:55:20;;;;;;;46.88;5.95;;;8.20;99.90;;;;;;4926754;29;20028;-60
2023/09/26 02:57:45;;;;;;;85.90;7.35;;;8.20;99.90;;;;;;4927867;29;20389;-59
2023/09/26 03:00:16;;;;;;;36.47;5.35;;;8.20;99.90;;;;;;4924305;29;20028;-59
2023/09/26 03:02:45;;;;;;;21.35;4.22;;;8.20;99.90;;;;;;4929023;29;20027;-58
2023/09/26 03:05:11;;;;;;;3.88;3.22;;;8.30;99.90;;;;;;4926959;29;20144;-59
2023/09/26 03:07:38;;;;;;;11.13;4.05;;;8.30;99.90;;;;;;4927434;29;20119;-59
2023/09/26 03:10:04;;;;;;;34.97;4.32;;;8.40;99.90;;;;;;4927852;29;20062;-59
2023/09/26 03:12:29;;;;;;;77.60;5.40;;;8.40;99.90;;;;;;4926601;29;20048;-59
2023/09/26 03:14:56;;;;;;;75.68;6.38;;;8.30;99.90;;;;;;4927072;29;20032;-59
2023/09/26 03:17:21;;;;;;;94.65;7.03;;;8.30;99.90;;;;;;4927871;29;20292;-59
2023/09/26 03:19:47;;;;;;;102.68;7.03;;;8.30;99.90;;;;;;4926511;29;20031;-59
2023/09/26 03:22:13;;;;;;;110.00;7.80;;;8.20;99.90;;;;;;4925979;29;20028;-59
2023/09/26 03:24:39;;;;;;;37.63;6.10;;;8.20;99.90;;;;;;4929207;28;20028;-58
2023/09/26 03:27:04;;;;;;;40.72;4.90;;;8.10;99.90;;;;;;4927629;29;20027;-59
2023/09/26 03:29:30;;;;;;;16.98;3.47;;;8.10;99.90;;;;;;4926722;28;20023;-59
2023/09/26 03:31:55;;;;;;;7.18;3.88;;;8.10;99.90;;;;;;4927356;29;20047;-60
2023/09/26 03:34:21;;;;;;;9.52;3.50;;;8.00;99.90;;;;;;4928456;29;20428;-59
2023/09/26 03:36:47;;;;;;;4.15;2.67;;;8.00;99.90;;;;;;4926893;28;20046;-60
2023/09/26 03:39:13;;;;;;;5.63;2.65;;;8.00;99.90;;;;;;4924636;29;20117;-59
2023/09/26 03:41:38;;;;;;;3.08;2.58;;;8.00;99.90;;;;;;4925452;29;20444;-59
2023/09/26 03:44:04;;;;;;;6.13;2.58;;;8.00;99.90;;;;;;4928940;29;20477;-58
2023/09/26 03:46:32;;;;;;;8.63;2.42;;;7.90;99.90;;;;;;4929800;29;20028;-59
2023/09/26 03:48:57;;;;;;;31.65;3.22;;;7.90;99.90;;;;;;4926356;29;20496;-59
2023/09/26 03:51:23;;;;;;;33.97;4.68;;;8.00;99.90;;;;;;4928047;29;20053;-59
2023/09/26 03:53:49;;;;;;;47.70;4.82;;;8.00;99.90;;;;;;4923322;29;20025;-59
2023/09/26 03:56:15;;;;;;;37.88;4.10;;;8.00;99.90;;;;;;4925608;29;20035;-59
2023/09/26 03:58:41;;;;;;;18.38;3.25;;;8.00;99.90;;;;;;4926718;29;20374;-59
2023/09/26 04:01:11;;;;;;;20.20;3.38;;;8.10;99.90;;;;;;4925707;29;20038;-59
2023/09/26 04:03:42;;;;;;;28.80;4.20;;;8.10;99.90;;;;;;4925863;28;20032;-58
2023/09/26 04:06:09;;;;;;;27.27;4.75;;;8.00;99.90;;;;;;4923658;29;20040;-58
2023/09/26 04:08:35;;;;;;;15.93;3.95;;;8.10;99.90;;;;;;4924073;29;20051;-59
2023/09/26 04:11:01;;;;;;;17.50;4.45;;;8.10;99.90;;;;;;4925462;29;20043;-59
2023/09/26 04:13:26;;;;;;;9.40;4.03;;;8.20;99.90;;;;;;4926625;29;20039;-59
2023/09/26 04:15:55;;;;;;;14.52;4.18;;;8.20;99.90;;;;;;4922323;29;20036;-59
2023/09/26 04:18:22;;;;;;;16.52;4.45;;;8.20;99.90;;;;;;4924282;29;20031;-59
2023/09/26 04:20:51;;;;;;;10.00;4.55;;;8.20;99.90;;;;;;4921041;29;20044;-59
2023/09/26 04:23:17;;;;;;;9.07;4.20;;;8.20;99.90;;;;;;4925659;29;20024;-59
2023/09/26 04:25:43;;;;;;;21.17;4.90;;;8.20;99.90;;;;;;4926463;29;20039;-59
2023/09/26 04:28:08;;;;;;;10.50;4.35;;;8.20;99.90;;;;;;4924868;29;20616;-59
2023/09/26 04:30:39;;;;;;;14.55;4.53;;;8.30;99.90;;;;;;4922853;29;20390;-60
2023/09/26 04:33:06;;;;;;;5.10;4.70;;;8.20;99.90;;;;;;4925572;29;20378;-59
2023/09/26 04:35:32;;;;;;;12.95;5.43;;;8.20;99.90;;;;;;4924410;29;20036;-59
2023/09/26 04:37:57;;;;;;;8.00;4.53;;;8.20;99.90;;;;;;4926474;29;20031;-58
2023/09/26 04:40:23;;;;;;;6.15;4.30;;;8.10;99.90;;;;;;4930439;29;20036;-59
2023/09/26 04:42:49;;;;;;;6.47;3.85;;;8.10;99.90;;;;;;4930914;29;20027;-59
2023/09/26 04:45:15;;;;;;;8.57;4.85;;;8.10;99.90;;;;;;4930362;29;20036;-58
2023/09/26 04:47:41;;;;;;;6.93;4.90;;;8.10;99.90;;;;;;4930976;28;20055;-59
2023/09/26 04:50:07;;;;;;;9.13;4.40;;;8.00;99.90;;;;;;4930639;29;20757;-58
2023/09/26 04:52:33;;;;;;;11.82;4.43;;;8.00;99.90;;;;;;4928378;29;20044;-59
2023/09/26 04:54:59;;;;;;;8.63;4.88;;;7.90;99.90;;;;;;4926514;29;20110;-59
2023/09/26 04:57:24;;;;;;;7.57;4.82;;;7.90;99.90;;;;;;4928032;29;20047;-60
2023/09/26 04:59:50;;;;;;;18.42;4.55;;;7.90;99.90;;;;;;4928879;28;20040;-59
2023/09/26 05:02:16;;;;;;;8.45;5.20;;;7.90;99.90;;;;;;4931388;29;20024;-60
2023/09/26 05:04:41;;;;;;;11.98;4.65;;;7.90;99.90;;;;;;4931246;29;20090;-59
2023/09/26 05:07:09;;;;;;;15.90;4.75;;;7.90;99.90;;;;;;4927327;29;20043;-59
2023/09/26 05:09:36;;;;;;;28.50;5.90;;;7.80;99.90;;;;;;4928378;29;20605;-59
2023/09/26 05:12:02;;;;;;;65.45;7.18;;;7.90;99.90;;;;;;4930071;29;20055;-60
2023/09/26 05:14:28;;;;;;;37.75;6.65;;;7.80;99.90;;;;;;4929073;29;20476;-59
2023/09/26 05:16:53;;;;;;;56.00;6.68;;;7.80;99.90;;;;;;4926215;29;20029;-59
2023/09/26 05:19:19;;;;;;;19.20;5.38;;;7.80;99.90;;;;;;4924963;29;20497;-58
2023/09/26 05:21:45;;;;;;;32.53;5.78;;;7.80;99.90;;;;;;4926749;29;20091;-59
2023/09/26 05:24:10;;;;;;;22.42;5.38;;;7.90;99.90;;;;;;4928035;29;20122;-59
2023/09/26 05:26:36;;;;;;;34.28;6.80;;;7.90;99.90;;;;;;4927416;29;20031;-59
2023/09/26 05:29:02;;;;;;;30.00;6.22;;;7.90;99.90;;;;;;4932258;29;20023;-60
2023/09/26 05:31:32;;;;;;;16.70;6.20;;;8.00;99.90;;;;;;4928853;29;20035;-59
2023/09/26 05:34:00;;;;;;;20.45;6.45;;;8.00;99.90;;;;;;4927963;29;20031;-58
2023/09/26 05:36:26;;;;;;;23.42;6.05;;;8.10;99.90;;;;;;4929173;29;20040;-59
2023/09/26 05:38:51;;;;;;;33.95;5.75;;;8.10;99.90;;;;;;4929333;28;20047;-60
2023/09/26 05:41:17;;;;;;;23.52;6.28;;;8.10;99.90;;;;;;4929858;29;20040;-59
2023/09/26 05:43:43;;;;;;;31.85;5.47;;;8.20;99.90;;;;;;4930681;29;20031;-58
2023/09/26 05:46:09;;;;;;;16.40;5.72;;;8.20;99.90;;;;;;4925805;29;20493;-58
2023/09/26 05:48:35;;;;;;;17.00;5.63;;;8.20;99.90;;;;;;4930372;29;20111;-59
2023/09/26 05:51:04;;;;;;;15.82;5.10;;;8.20;99.90;;;;;;4930576;29;20047;-59
2023/09/26 05:53:30;;;;;;;13.70;5.32;;;8.30;99.90;;;;;;4927736;29;20102;-59
2023/09/26 05:55:56;;;;;;;30.20;6.22;;;8.30;99.90;;;;;;4932273;29;20641;-59
2023/09/26 05:58:22;;;;;;;13.35;5.32;;;8.30;99.90;;;;;;4929237;29;20031;-59
2023/09/26 06:00:48;;;;;;;12.27;5.40;;;8.40;99.90;;;;;;4930253;29;20024;-59
2023/09/26 06:03:15;;;;;;;25.42;6.00;;;8.50;99.90;;;;;;4930933;29;20048;-59
2023/09/26 06:05:44;;;;;;;39.47;6.18;;;8.50;99.90;;;;;;4929204;29;20027;-59
2023/09/26 06:08:10;;;;;;;30.42;7.00;;;8.60;99.90;;;;;;4927136;29;20571;-59
2023/09/26 06:10:35;;;;;;;33.92;6.15;;;8.70;99.90;;;;;;4927058;29;20040;-59
2023/09/26 06:13:01;;;;;;;9.48;5.57;;;8.70;99.90;;;;;;4928748;29;20031;-59
2023/09/26 06:15:27;;;;;;;57.28;7.00;;;8.80;99.90;;;;;;4926938;29;20039;-59
2023/09/26 06:17:57;;;;;;;33.40;5.97;;;8.90;99.90;;;;;;4925500;29;20024;-59
2023/09/26 06:20:23;;;;;;;26.23;5.43;;;8.90;99.90;;;;;;4928378;29;20562;-60
2023/09/26 06:22:49;;;;;;;24.92;5.93;;;9.00;99.90;;;;;;4929063;29;20127;-59
2023/09/26 06:25:14;;;;;;;17.90;5.82;;;9.10;99.90;;;;;;4926190;28;20059;-59
2023/09/26 06:27:40;;;;;;;48.10;6.35;;;9.10;99.90;;;;;;4927249;29;20028;-60
2023/09/26 06:30:06;;;;;;;11.75;5.70;;;9.20;99.90;;;;;;4925689;29;20047;-58
2023/09/26 06:32:34;;;;;;;29.23;6.25;;;9.30;99.90;;;;;;4927908;29;20365;-59
2023/09/26 06:35:00;;;;;;;41.88;7.32;;;9.40;99.90;;;;;;4927072;29;20036;-58
2023/09/26 06:37:25;;;;;;;31.67;6.63;;;9.40;99.90;;;;;;4926351;28;20040;-60
2023/09/26 06:39:51;;;;;;;19.20;5.43;;;9.50;99.90;;;;;;4928094;29;20055;-59
2023/09/26 06:42:17;;;;;;;6.47;5.95;;;9.50;99.90;;;;;;4931163;29;20024;-59
2023/09/26 06:44:42;;;;;;;6.47;5.80;;;9.60;99.90;;;;;;4928189;29;20993;-59
2023/09/26 06:47:08;;;;;;;22.65;6.00;;;9.70;99.90;;;;;;4929501;29;20114;-59
2023/09/26 06:49:34;;;;;;;5.85;5.20;;;9.80;99.90;;;;;;4927294;29;20400;-59
2023/09/26 06:52:01;;;;;;;25.17;6.05;;;9.90;99.90;;;;;;4929597;29;20619;-59
2023/09/26 06:54:26;;;;;;;36.42;5.95;;;10.00;99.90;;;;;;4927197;29;20023;-59
2023/09/26 06:56:52;;;;;;;23.25;5.85;;;10.10;99.90;;;;;;4924021;29;20519;-59
2023/09/26 06:59:18;;;;;;;28.65;6.07;;;10.10;99.90;;;;;;4926461;29;20119;-59
2023/09/26 07:01:43;;;;;;;17.60;6.70;;;10.10;99.90;;;;;;4925025;29;20040;-59
2023/09/26 07:04:14;;;;;;;7.05;6.45;;;10.20;99.90;;;;;;4925652;28;20484;-59
2023/09/26 07:06:40;;;;;;;6.50;5.97;;;10.30;99.90;;;;;;4927225;29;20028;-59
2023/09/26 07:09:07;;;;;;;9.77;6.22;;;10.30;99.90;;;;;;4926495;29;20111;-59
2023/09/26 07:11:33;;;;;;;6.68;6.18;;;10.40;99.90;;;;;;4926127;29;20028;-59
2023/09/26 07:13:59;;;;;;;6.57;6.07;;;10.50;99.90;;;;;;4926778;29;20024;-59
2023/09/26 07:16:25;;;;;;;5.60;5.15;;;10.60;99.90;;;;;;4922074;28;20047;-59
2023/09/26 07:18:51;;;;;;;6.95;6.45;;;10.70;99.90;;;;;;4929394;29;20079;-59
2023/09/26 07:21:17;;;;;;;6.95;6.45;;;10.70;99.90;;;;;;4922195;29;20099;-59
2023/09/26 07:23:42;;;;;;;7.22;6.72;;;10.80;99.90;;;;;;4923147;29;20070;-59
2023/09/26 07:26:13;;;;;;;7.32;6.82;;;10.80;99.90;;;;;;4927564;29;20103;-59
2023/09/26 07:28:41;;;;;;;7.82;7.32;;;10.90;99.90;;;;;;4925168;28;20468;-60
2023/09/26 07:31:10;;;;;;;7.93;7.32;;;11.00;99.90;;;;;;4927707;29;20119;-59
2023/09/26 07:33:40;;;;;;;8.52;7.93;;;11.10;99.90;;;;;;4926844;29;20742;-59
2023/09/26 07:36:06;;;;;;;8.35;7.78;;;11.20;99.90;;;;;;4926529;29;20127;-58
2023/09/26 07:38:35;;;;;;;8.60;8.00;;;11.30;99.90;;;;;;4926505;29;20036;-59
2023/09/26 07:41:01;;;;;;;8.77;8.18;;;11.50;99.90;;;;;;4926563;29;20020;-61
2023/09/26 07:43:32;;;;;;;7.72;7.20;;;11.60;99.90;;;;;;4928744;29;20040;-57
2023/09/26 07:46:12;;;;;;;8.27;7.68;;;11.60;99.90;;;;;;4926308;29;20108;-60
2023/09/26 07:48:38;;;;;;;8.82;8.23;;;11.80;99.90;;;;;;4913406;29;20027;-59
2023/09/26 07:51:06;;;;;;;10.10;9.38;;;11.90;99.90;;;;;;4928528;29;20091;-59
2023/09/26 07:53:31;;;;;;;9.32;8.63;;;12.10;99.90;;;;;;4923766;29;20036;-60
2023/09/26 07:55:58;;;;;;;9.43;8.82;;;12.20;99.90;;;;;;4926075;29;20029;-60
2023/09/26 07:58:23;;;;;;;9.27;8.57;;;12.30;99.90;;;;;;4925089;29;20055;-60
2023/09/26 08:00:49;;;;;;;8.32;7.72;;;12.50;99.90;;;;;;4924503;28;20055;-59
2023/09/26 08:03:15;;;;;;;9.80;9.10;;;12.60;99.90;;;;;;4925322;29;20032;-60
2023/09/26 08:05:40;;;;;;;10.65;9.65;;;12.80;99.90;;;;;;4925893;29;20035;-60
2023/09/26 08:08:06;;;;;;;10.23;9.43;;;12.90;99.90;;;;;;4928528;29;20028;-58
2023/09/26 08:10:37;;;;;;;9.18;8.48;;;13.10;99.90;;;;;;4922431;29;20402;-60
2023/09/26 08:13:03;;;;;;;8.60;7.75;;;13.30;99.90;;;;;;4924365;29;20028;-59
2023/09/26 08:15:31;;;;;;;9.05;8.20;;;13.40;99.90;;;;;;4926270;29;20405;-60
2023/09/26 08:17:57;;;;;;;8.88;8.25;;;13.50;99.90;;;;;;4923455;29;20489;-60
2023/09/26 08:20:24;;;;;;;9.32;8.52;;;13.60;99.90;;;;;;4925860;29;20039;-60
2023/09/26 08:22:50;;;;;;;8.45;7.72;;;13.80;99.90;;;;;;4928547;29;20036;-59
2023/09/26 08:25:15;;;;;;;7.75;7.10;;;13.90;99.90;;;;;;4924136;28;20484;-60
2023/09/26 08:27:41;;;;;;;9.00;8.40;;;14.00;99.90;;;;;;4924894;29;20039;-59
2023/09/26 08:30:09;;;;;;;8.68;7.97;;;14.10;99.90;;;;;;4926190;29;20108;-60
2023/09/26 08:32:34;;;;;;;8.77;7.97;;;14.30;99.90;;;;;;4926769;29;20027;-59
2023/09/26 08:35:00;;;;;;;8.73;7.93;;;14.60;99.90;;;;;;4926020;29;20031;-60
2023/09/26 08:37:25;;;;;;;8.10;7.50;;;14.80;99.90;;;;;;4925122;29;20378;-59
2023/09/26 08:39:51;;;;;;;7.30;6.80;;;14.90;99.90;;;;;;4924863;29;20550;-59
2023/09/26 08:42:27;;;;;;;6.80;6.10;;;15.10;99.90;;;;;;4925552;29;20028;-60
2023/09/26 08:44:54;;;;;;;8.13;7.47;;;15.20;99.90;;;;;;4922262;28;20032;-60
2023/09/26 08:47:23;;;;;;;7.13;6.53;;;15.30;99.90;;;;;;4923390;29;20036;-60
2023/09/26 08:49:52;;;;;;;6.82;6.32;;;15.50;99.90;;;;;;4925876;29;20043;-60
2023/09/26 08:52:18;;;;;;;7.43;6.90;;;15.60;99.90;;;;;;4923560;29;20043;-60
2023/09/26 08:54:44;;;;;;;6.43;5.93;;;15.80;99.90;;;;;;4925918;29;20114;-59
2023/09/26 08:57:10;;;;;;;7.05;6.43;;;16.00;99.90;;;;;;4925852;29;20039;-60
2023/09/26 08:59:36;;;;;;;6.43;5.93;;;16.20;99.90;;;;;;4923124;29;20555;-60
2023/09/26 09:02:03;;;;;;;5.93;5.20;;;16.50;99.90;;;;;;4907569;29;20039;-61
2023/09/26 09:04:29;;;;;;;5.35;4.85;;;16.90;99.90;;;;;;4924985;29;20519;-61
2023/09/26 09:07:06;;;;;;;4.43;4.03;;;17.80;99.90;;;;;;4923345;29;20036;-62
2023/09/26 09:09:33;;;;;;;4.10;3.75;;;19.40;99.90;;;;;;4923956;29;20044;-61
2023/09/26 09:11:59;;;;;;;3.85;3.55;;;20.90;99.90;;;;;;4923790;29;20031;-61
2023/09/26 09:14:32;;;;;;;2.92;2.67;;;22.20;99.90;;;;;;4905935;29;20020;-61
2023/09/26 09:16:58;;;;;;;3.60;3.30;;;23.10;99.90;;;;;;4925930;29;20089;-61
2023/09/26 09:19:48;;;;;;;4.65;2.90;;;23.60;99.90;;;;;;4926499;29;20114;-61
2023/09/26 09:22:19;;;;;;;4.45;3.70;;;23.60;99.90;;;;;;4924083;29;20043;-61
2023/09/26 09:24:53;;;;;;;5.22;3.30;;;23.30;99.90;;;;;;4929851;29;20500;-61
2023/09/26 09:27:34;;;;;;;4.05;3.22;;;23.00;99.90;;;;;;4930845;28;20066;-61
2023/09/26 09:30:11;;;;;;;3.60;3.30;;;22.60;99.90;;;;;;4927744;29;20028;-61
2023/09/26 09:32:39;;;;;;;3.58;3.28;;;22.20;99.90;;;;;;4927553;29;20024;-60
2023/09/26 09:35:07;;;;;;;3.97;3.58;;;22.00;99.90;;;;;;4928944;29;20127;-60
2023/09/26 09:37:32;;;;;;;3.95;3.65;;;21.70;99.90;;;;;;4927284;29;20036;-59
2023/09/26 09:39:58;;;;;;;4.38;3.55;;;21.50;99.90;;;;;;4927161;29;20032;-60
2023/09/26 09:42:24;;;;;;;3.85;3.55;;;21.40;99.90;;;;;;4929818;29;20201;-60
2023/09/26 09:44:50;;;;;;;4.53;4.13;;;21.50;99.90;;;;;;4929192;29;20027;-61
2023/09/26 09:47:22;;;;;;;4.07;3.67;;;21.50;99.90;;;;;;4928413;29;20040;-60
2023/09/26 09:49:48;;;;;;;4.05;3.20;;;21.60;99.90;;;;;;4929235;29;20032;-60
2023/09/26 09:52:17;;;;;;;5.47;3.35;;;21.70;99.90;;;;;;4892273;29;20040;-61
2023/09/26 09:54:45;;;;;;;3.75;3.42;;;21.80;99.90;;;;;;4928786;29;20032;-61
2023/09/26 09:57:14;;;;;;;4.53;4.07;;;21.90;99.90;;;;;;4927229;29;20119;-61
2023/09/26 09:59:41;;;;;;;3.92;3.55;;;22.00;99.90;;;;;;4928631;29;20539;-60
2023/09/26 10:02:10;;;;;;;5.63;3.22;;;22.00;99.90;;;;;;4927085;29;20147;-59
2023/09/26 10:04:40;;;;;;;5.22;3.95;;;22.10;99.90;;;;;;4928544;29;20043;-60
2023/09/26 10:07:06;;;;;;;4.53;3.30;;;22.30;99.90;;;;;;4930061;29;20203;-60
2023/09/26 10:09:34;;;;;;;5.20;3.72;;;22.40;99.90;;;;;;4925469;29;20087;-61
2023/09/26 10:12:01;;;;;;;4.10;3.00;;;22.70;99.90;;;;;;4928178;29;20102;-61
2023/09/26 10:14:30;;;;;;;4.82;3.00;;;23.00;99.90;;;;;;4930754;29;20047;-61
2023/09/26 10:16:59;;;;;;;2.88;2.65;;;23.30;99.90;;;;;;4930454;29;20400;-61
2023/09/26 10:19:28;;;;;;;7.95;3.20;;;23.30;99.90;;;;;;4930852;28;20075;-62
2023/09/26 10:22:19;;;;;;;3.83;3.22;;;23.30;99.90;;;;;;4924194;29;20111;-61
2023/09/26 10:24:50;;;;;;;4.10;3.33;;;23.20;99.90;;;;;;4926280;28;20036;-60
2023/09/26 10:27:23;;;;;;;;;;;23.20;99.90;;;;;;4926081;29;20039;-60
2023/09/26 10:29:51;;;;;;;3.33;3.03;;;23.10;99.90;;;;;;4926592;28;19911;-62
2023/09/26 10:32:32;;;;;;;3.20;2.60;;;23.10;99.90;;;;;;4928903;29;20034;-61
2023/09/26 10:34:58;;;;;;;;;;;23.00;99.90;;;;;;4924674;29;20055;-61
2023/09/26 10:37:25;;;;;;;3.10;2.80;;;22.80;99.90;;;;;;4926183;29;19919;-61
2023/09/26 10:39:51;;;;;;;4.03;3.10;;;22.80;99.90;;;;;;4927313;29;20039;-60
2023/09/26 10:42:21;;;;;;;3.10;2.80;;;22.70;99.90;;;;;;4930049;29;20051;-61
2023/09/26 10:44:50;;;;;;;4.78;3.17;;;22.60;99.90;;;;;;4925232;29;20082;-60
2023/09/26 10:47:18;;;;;;;3.92;3.38;;;22.50;99.90;;;;;;4926051;29;20050;-59
2023/09/26 10:49:43;;;;;;;4.35;2.95;;;22.50;99.90;;;;;;4929300;29;20035;-61
2023/09/26 10:52:10;;;;;;;4.40;2.92;;;22.40;99.90;;;;;;4925631;28;20098;-60
2023/09/26 10:54:37;;;;;;;3.00;2.70;;;22.30;99.90;;;;;;4928836;29;20055;-60
2023/09/26 10:57:06;;;;;;;3.33;3.03;;;22.30;99.90;;;;;;4930069;28;20039;-60
2023/09/26 10:59:32;;;;;;;5.00;2.85;;;22.20;99.90;;;;;;4926174;29;20023;-60
2023/09/26 11:02:00;;;;;;;3.33;2.55;;;22.20;99.90;;;;;;4926267;29;20102;-60
2023/09/26 11:04:31;;;;;;;2.95;2.47;;;22.30;99.90;;;;;;4925911;28;20043;-60
2023/09/26 11:06:59;;;;;;;;;;;22.30;99.90;;;;;;4927623;29;20027;-60
2023/09/26 11:09:26;;;;;;;3.63;3.10;;;22.40;99.90;;;;;;4925538;29;20442;-61
2023/09/26 11:11:55;;;;;;;3.67;2.65;;;22.40;99.90;;;;;;4927781;29;20031;-57
2023/09/26 11:14:26;;;;;;;2.95;2.30;;;22.40;99.90;;;;;;4929107;29;20031;-59
2023/09/26 11:16:52;;;;;;;2.70;2.45;;;22.50;99.90;;;;;;4925820;29;20072;-59
2023/09/26 11:19:18;;;;;;;5.53;2.63;;;22.60;99.90;;;;;;4926348;29;20032;-60
2023/09/26 11:21:49;;;;;;;2.45;2.25;;;22.60;99.90;;;;;;4927246;29;20407;-60
2023/09/26 11:24:32;;;;;;;3.75;2.83;;;22.70;99.90;;;;;;4927696;29;20043;-59
2023/09/26 11:27:01;;;;;;;4.30;2.78;;;22.60;99.90;;;;;;4925646;29;20028;-60
2023/09/26 11:29:27;;;;;;;2.97;2.58;;;22.50;99.90;;;;;;4925099;29;20032;-60
2023/09/26 11:31:55;;;;;;;2.88;2.40;;;22.50;99.90;;;;;;4925752;29;20539;-60
2023/09/26 11:34:21;;;;;;;3.30;2.80;;;22.70;99.90;;;;;;4924921;29;20051;-60
2023/09/26 11:36:51;;;;;;;3.03;2.42;;;22.80;99.90;;;;;;4926059;29;20031;-60
2023/09/26 11:39:22;;;;;;;2.53;2.30;;;22.80;99.90;;;;;;4928111;29;20036;-60
2023/09/26 11:42:05;;;;;;;5.75;2.47;;;22.90;99.90;;;;;;4926684;29;20039;-59
2023/09/26 11:44:31;;;;;;;11.20;2.70;;;23.10;99.90;;;;;;4928425;29;20015;-59
2023/09/26 11:46:57;;;;;;;2.63;2.30;;;23.20;99.90;;;;;;4927482;29;20547;-60
2023/09/26 11:49:23;;;;;;;3.53;2.58;;;23.40;99.90;;;;;;4923899;29;20035;-60
2023/09/26 11:51:49;;;;;;;5.75;2.92;;;23.50;99.90;;;;;;4928766;29;20036;-60
2023/09/26 11:54:15;;;;;;;2.55;2.35;;;23.50;99.90;;;;;;4929551;29;20143;-60
2023/09/26 11:56:45;;;;;;;4.93;3.17;;;23.50;99.90;;;;;;4926100;29;20547;-60
2023/09/26 11:59:11;;;;;;;5.83;3.17;;;23.40;99.90;;;;;;4927692;29;20043;-62
2023/09/26 12:01:41;;;;;;;3.00;2.70;;;23.50;99.90;;;;;;4926264;29;20115;-60
2023/09/26 12:04:09;;;;;;;2.88;2.55;;;23.50;99.90;;;;;;4926222;28;20083;-60
2023/09/26 12:06:34;;;;;;;3.33;2.90;;;23.60;99.90;;;;;;4926218;29;20578;-59
2023/09/26 12:09:00;;;;;;;2.97;2.75;;;23.70;99.90;;;;;;4924523;29;20064;-61
2023/09/26 12:11:26;;;;;;;3.25;2.40;;;23.80;99.90;;;;;;4927237;29;20028;-60
2023/09/26 12:13:52;;;;;;;4.05;2.55;;;23.80;99.90;;;;;;4928779;29;20107;-60
2023/09/26 12:16:18;;;;;;;2.92;2.35;;;23.80;99.90;;;;;;4924147;29;20067;-61
2023/09/26 12:18:43;;;;;;;3.85;2.97;;;23.80;99.90;;;;;;4927201;29;20031;-60
2023/09/26 12:21:09;;;;;;;2.85;2.65;;;23.80;99.90;;;;;;4927283;29;20066;-60
2023/09/26 12:23:35;;;;;;;3.45;2.80;;;23.80;99.90;;;;;;4925145;29;20067;-60
2023/09/26 12:26:01;;;;;;;3.95;2.38;;;23.80;99.90;;;;;;4923163;29;20055;-61
2023/09/26 12:28:27;;;;;;;3.35;2.47;;;24.00;99.90;;;;;;4922685;29;20036;-60
2023/09/26 12:30:53;;;;;;;3.78;3.30;;;24.00;99.90;;;;;;4925568;29;20035;-60
2023/09/26 12:33:20;;;;;;;3.85;2.60;;;23.90;99.90;;;;;;4923983;29;20036;-60
2023/09/26 12:35:45;;;;;;;3.17;2.40;;;23.80;99.90;;;;;;4924743;29;20519;-60
2023/09/26 12:38:11;;;;;;;3.90;2.53;;;23.70;99.90;;;;;;4926493;29;20028;-60
2023/09/26 12:40:37;;;;;;;3.20;2.88;;;23.70;99.90;;;;;;4925270;29;20027;-60
2023/09/26 12:43:04;;;;;;;3.20;2.85;;;23.60;99.90;;;;;;4928345;29;20035;-60
2023/09/26 12:45:29;;;;;;;3.88;2.67;;;23.60;99.90;;;;;;4926011;29;20038;-60
2023/09/26 12:47:55;;;;;;;3.30;2.70;;;23.60;99.90;;;;;;4926173;29;20079;-60
2023/09/26 12:50:21;;;;;;;4.45;2.80;;;23.70;99.90;;;;;;4908338;29;20400;-60